sensor_id;sensor_type;location;lat;lon;timestamp;P1;durP1;ratioP1;P2;durP2;ratioP2
44366;SDS011;30086;57.660;12.000;2023-01-24T00:02:24;4.38;;;3.15;;
44366;SDS011;30086;57.660;12.000;2023-01-24T00:04:50;6.15;;;3.40;;
44366;SDS011;30086;57.660;12.000;2023-01-24T00:07:16;6.00;;;3.97;;
44366;SDS011;30086;57.660;12.000;2023-01-24T00:09:42;8.50;;;3.63;;
44366;SDS011;30086;57.660;12.000;2023-01-24T00:12:08;6.45;;;4.10;;
44366;SDS011;30086;57.660;12.000;2023-01-24T00:14:34;5.18;;;3.50;;
44366;SDS011;30086;57.660;12.000;2023-01-24T00:17:00;6.97;;;3.88;;
44366;SDS011;30086;57.660;12.000;2023-01-24T00:19:26;5.18;;;3.50;;
44366;SDS011;30086;57.660;12.000;2023-01-24T00:21:52;5.15;;;3.60;;
44366;SDS011;30086;57.660;12.000;2023-01-24T00:24:18;8.48;;;4.07;;
44366;SDS011;30086;57.660;12.000;2023-01-24T00:26:44;5.97;;;3.40;;
44366;SDS011;30086;57.660;12.000;2023-01-24T00:29:10;6.10;;;3.25;;
44366;SDS011;30086;57.660;12.000;2023-01-24T00:31:36;6.85;;;3.55;;
44366;SDS011;30086;57.660;12.000;2023-01-24T00:34:03;7.97;;;3.45;;
44366;SDS011;30086;57.660;12.000;2023-01-24T00:36:29;3.95;;;2.45;;
44366;SDS011;30086;57.660;12.000;2023-01-24T00:38:55;7.78;;;3.80;;
44366;SDS011;30086;57.660;12.000;2023-01-24T00:41:21;6.40;;;3.58;;
44366;SDS011;30086;57.660;12.000;2023-01-24T00:43:47;6.47;;;2.83;;
44366;SDS011;30086;57.660;12.000;2023-01-24T00:46:13;6.63;;;4.30;;
44366;SDS011;30086;57.660;12.000;2023-01-24T00:48:39;9.75;;;4.38;;
44366;SDS011;30086;57.660;12.000;2023-01-24T00:51:05;7.93;;;4.55;;
44366;SDS011;30086;57.660;12.000;2023-01-24T00:53:31;7.57;;;4.45;;
44366;SDS011;30086;57.660;12.000;2023-01-24T00:55:57;9.13;;;4.72;;
44366;SDS011;30086;57.660;12.000;2023-01-24T00:58:23;7.32;;;2.92;;
44366;SDS011;30086;57.660;12.000;2023-01-24T01:00:49;6.70;;;4.70;;
44366;SDS011;30086;57.660;12.000;2023-01-24T01:03:17;7.57;;;4.63;;
44366;SDS011;30086;57.660;12.000;2023-01-24T01:05:44;5.93;;;3.67;;
44366;SDS011;30086;57.660;12.000;2023-01-24T01:08:10;10.90;;;5.53;;
44366;SDS011;30086;57.660;12.000;2023-01-24T01:10:36;9.32;;;5.68;;
44366;SDS011;30086;57.660;12.000;2023-01-24T01:13:03;7.47;;;5.43;;
44366;SDS011;30086;57.660;12.000;2023-01-24T01:15:30;7.68;;;5.85;;
44366;SDS011;30086;57.660;12.000;2023-01-24T01:17:57;9.68;;;4.93;;
44366;SDS011;30086;57.660;12.000;2023-01-24T01:20:23;11.20;;;5.18;;
44366;SDS011;30086;57.660;12.000;2023-01-24T01:22:49;8.38;;;6.20;;
44366;SDS011;30086;57.660;12.000;2023-01-24T01:25:15;8.23;;;4.60;;
44366;SDS011;30086;57.660;12.000;2023-01-24T01:27:41;6.85;;;4.50;;
44366;SDS011;30086;57.660;12.000;2023-01-24T01:30:07;7.55;;;5.85;;
44366;SDS011;30086;57.660;12.000;2023-01-24T01:32:33;9.60;;;5.72;;
44366;SDS011;30086;57.660;12.000;2023-01-24T01:34:59;11.48;;;6.25;;
44366;SDS011;30086;57.660;12.000;2023-01-24T01:37:25;9.63;;;6.05;;
44366;SDS011;30086;57.660;12.000;2023-01-24T01:39:51;7.43;;;4.40;;
44366;SDS011;30086;57.660;12.000;2023-01-24T01:42:17;14.70;;;4.88;;
44366;SDS011;30086;57.660;12.000;2023-01-24T01:44:43;8.20;;;5.32;;
44366;SDS011;30086;57.660;12.000;2023-01-24T01:47:18;9.93;;;5.65;;
44366;SDS011;30086;57.660;12.000;2023-01-24T01:49:46;9.85;;;5.47;;
44366;SDS011;30086;57.660;12.000;2023-01-24T01:52:14;7.63;;;4.13;;
44366;SDS011;30086;57.660;12.000;2023-01-24T01:54:40;8.68;;;6.18;;
44366;SDS011;30086;57.660;12.000;2023-01-24T01:57:20;10.88;;;4.43;;
44366;SDS011;30086;57.660;12.000;2023-01-24T01:59:51;5.88;;;2.72;;
44366;SDS011;30086;57.660;12.000;2023-01-24T02:02:20;8.82;;;5.05;;
44366;SDS011;30086;57.660;12.000;2023-01-24T02:04:55;5.25;;;2.72;;
44366;SDS011;30086;57.660;12.000;2023-01-24T02:08:05;12.48;;;6.60;;
44366;SDS011;30086;57.660;12.000;2023-01-24T02:10:12;9.68;;;6.07;;
44366;SDS011;30086;57.660;12.000;2023-01-24T02:12:39;10.45;;;5.70;;
44366;SDS011;30086;57.660;12.000;2023-01-24T02:15:09;11.30;;;6.47;;
44366;SDS011;30086;57.660;12.000;2023-01-24T02:17:54;12.27;;;6.45;;
44366;SDS011;30086;57.660;12.000;2023-01-24T02:23:02;7.80;;;3.60;;
44366;SDS011;30086;57.660;12.000;2023-01-24T02:25:48;9.50;;;5.13;;
44366;SDS011;30086;57.660;12.000;2023-01-24T02:28:16;8.25;;;4.85;;
44366;SDS011;30086;57.660;12.000;2023-01-24T02:30:43;13.25;;;6.30;;
44366;SDS011;30086;57.660;12.000;2023-01-24T02:33:13;7.93;;;5.70;;
44366;SDS011;30086;57.660;12.000;2023-01-24T02:35:39;10.52;;;6.15;;
44366;SDS011;30086;57.660;12.000;2023-01-24T02:38:06;9.63;;;5.18;;
44366;SDS011;30086;57.660;12.000;2023-01-24T02:40:36;9.73;;;5.72;;
44366;SDS011;30086;57.660;12.000;2023-01-24T02:43:03;14.02;;;3.38;;
44366;SDS011;30086;57.660;12.000;2023-01-24T02:45:35;14.18;;;4.80;;
44366;SDS011;30086;57.660;12.000;2023-01-24T02:48:01;8.38;;;5.85;;
44366;SDS011;30086;57.660;12.000;2023-01-24T02:50:28;7.35;;;5.25;;
44366;SDS011;30086;57.660;12.000;2023-01-24T02:53:15;9.27;;;5.78;;
44366;SDS011;30086;57.660;12.000;2023-01-24T02:56:00;12.00;;;5.22;;
44366;SDS011;30086;57.660;12.000;2023-01-24T02:58:45;9.30;;;3.45;;
44366;SDS011;30086;57.660;12.000;2023-01-24T03:01:11;6.57;;;4.25;;
44366;SDS011;30086;57.660;12.000;2023-01-24T03:03:40;9.00;;;5.13;;
44366;SDS011;30086;57.660;12.000;2023-01-24T03:06:06;10.02;;;4.22;;
44366;SDS011;30086;57.660;12.000;2023-01-24T03:08:33;6.43;;;3.72;;
44366;SDS011;30086;57.660;12.000;2023-01-24T03:11:00;10.60;;;4.82;;
44366;SDS011;30086;57.660;12.000;2023-01-24T03:13:26;8.75;;;4.00;;
44366;SDS011;30086;57.660;12.000;2023-01-24T03:16:11;9.05;;;5.65;;
44366;SDS011;30086;57.660;12.000;2023-01-24T03:18:56;8.38;;;4.90;;
44366;SDS011;30086;57.660;12.000;2023-01-24T03:21:41;7.60;;;3.17;;
44366;SDS011;30086;57.660;12.000;2023-01-24T03:24:25;7.30;;;2.65;;
44366;SDS011;30086;57.660;12.000;2023-01-24T03:27:10;9.60;;;5.43;;
44366;SDS011;30086;57.660;12.000;2023-01-24T03:29:55;5.65;;;4.07;;
44366;SDS011;30086;57.660;12.000;2023-01-24T03:32:41;7.90;;;4.30;;
44366;SDS011;30086;57.660;12.000;2023-01-24T03:35:25;7.45;;;3.72;;
44366;SDS011;30086;57.660;12.000;2023-01-24T03:37:51;7.03;;;3.17;;
44366;SDS011;30086;57.660;12.000;2023-01-24T03:40:36;7.20;;;4.60;;
44366;SDS011;30086;57.660;12.000;2023-01-24T03:43:02;7.13;;;4.40;;
44366;SDS011;30086;57.660;12.000;2023-01-24T03:45:29;6.45;;;4.00;;
44366;SDS011;30086;57.660;12.000;2023-01-24T03:47:57;7.53;;;4.43;;
44366;SDS011;30086;57.660;12.000;2023-01-24T03:50:24;8.52;;;4.03;;
44366;SDS011;30086;57.660;12.000;2023-01-24T03:53:09;8.93;;;4.13;;
44366;SDS011;30086;57.660;12.000;2023-01-24T03:55:35;10.93;;;4.55;;
44366;SDS011;30086;57.660;12.000;2023-01-24T03:58:02;9.25;;;2.80;;
44366;SDS011;30086;57.660;12.000;2023-01-24T04:00:28;8.95;;;4.93;;
44366;SDS011;30086;57.660;12.000;2023-01-24T04:02:54;7.90;;;4.38;;
44366;SDS011;30086;57.660;12.000;2023-01-24T04:05:20;9.00;;;5.32;;
44366;SDS011;30086;57.660;12.000;2023-01-24T04:07:46;6.90;;;4.25;;
44366;SDS011;30086;57.660;12.000;2023-01-24T04:10:13;11.00;;;4.80;;
44366;SDS011;30086;57.660;12.000;2023-01-24T04:12:40;6.95;;;4.25;;
44366;SDS011;30086;57.660;12.000;2023-01-24T04:15:06;8.18;;;4.13;;
44366;SDS011;30086;57.660;12.000;2023-01-24T04:17:33;11.07;;;4.07;;
44366;SDS011;30086;57.660;12.000;2023-01-24T04:19:59;6.80;;;3.95;;
44366;SDS011;30086;57.660;12.000;2023-01-24T04:22:25;8.80;;;4.20;;
44366;SDS011;30086;57.660;12.000;2023-01-24T04:24:51;11.68;;;4.47;;
44366;SDS011;30086;57.660;12.000;2023-01-24T04:27:17;5.13;;;2.70;;
44366;SDS011;30086;57.660;12.000;2023-01-24T04:29:43;11.57;;;4.70;;
44366;SDS011;30086;57.660;12.000;2023-01-24T04:32:09;6.80;;;4.18;;
44366;SDS011;30086;57.660;12.000;2023-01-24T04:34:35;9.13;;;4.15;;
44366;SDS011;30086;57.660;12.000;2023-01-24T04:37:01;8.27;;;4.30;;
44366;SDS011;30086;57.660;12.000;2023-01-24T04:39:27;10.57;;;4.20;;
44366;SDS011;30086;57.660;12.000;2023-01-24T04:41:53;10.15;;;3.95;;
44366;SDS011;30086;57.660;12.000;2023-01-24T04:44:19;6.22;;;3.65;;
44366;SDS011;30086;57.660;12.000;2023-01-24T04:46:45;5.75;;;3.17;;
44366;SDS011;30086;57.660;12.000;2023-01-24T04:49:11;11.05;;;4.40;;
44366;SDS011;30086;57.660;12.000;2023-01-24T04:51:37;7.13;;;3.47;;
44366;SDS011;30086;57.660;12.000;2023-01-24T04:54:07;12.15;;;4.70;;
44366;SDS011;30086;57.660;12.000;2023-01-24T04:56:33;8.77;;;4.65;;
44366;SDS011;30086;57.660;12.000;2023-01-24T04:58:59;8.93;;;4.47;;
44366;SDS011;30086;57.660;12.000;2023-01-24T05:01:25;12.25;;;4.68;;
44366;SDS011;30086;57.660;12.000;2023-01-24T05:03:51;5.57;;;3.50;;
44366;SDS011;30086;57.660;12.000;2023-01-24T05:06:23;11.15;;;5.00;;
44366;SDS011;30086;57.660;12.000;2023-01-24T05:08:50;6.22;;;3.35;;
44366;SDS011;30086;57.660;12.000;2023-01-24T05:11:16;10.32;;;5.40;;
44366;SDS011;30086;57.660;12.000;2023-01-24T05:13:42;11.48;;;5.30;;
44366;SDS011;30086;57.660;12.000;2023-01-24T05:16:08;8.77;;;4.95;;
44366;SDS011;30086;57.660;12.000;2023-01-24T05:18:34;12.23;;;4.90;;
44366;SDS011;30086;57.660;12.000;2023-01-24T05:21:04;8.40;;;4.90;;
44366;SDS011;30086;57.660;12.000;2023-01-24T05:23:30;12.68;;;4.90;;
44366;SDS011;30086;57.660;12.000;2023-01-24T05:26:02;9.93;;;5.13;;
44366;SDS011;30086;57.660;12.000;2023-01-24T05:28:28;9.07;;;4.97;;
44366;SDS011;30086;57.660;12.000;2023-01-24T05:31:01;7.65;;;4.13;;
44366;SDS011;30086;57.660;12.000;2023-01-24T05:33:28;15.85;;;5.10;;
44366;SDS011;30086;57.660;12.000;2023-01-24T05:35:58;12.00;;;5.93;;
44366;SDS011;30086;57.660;12.000;2023-01-24T05:38:24;7.60;;;3.42;;
44366;SDS011;30086;57.660;12.000;2023-01-24T05:40:50;8.43;;;3.75;;
44366;SDS011;30086;57.660;12.000;2023-01-24T05:43:16;6.95;;;2.90;;
44366;SDS011;30086;57.660;12.000;2023-01-24T05:45:42;10.70;;;4.97;;
44366;SDS011;30086;57.660;12.000;2023-01-24T05:48:08;14.27;;;5.90;;
44366;SDS011;30086;57.660;12.000;2023-01-24T05:50:35;11.95;;;5.07;;
44366;SDS011;30086;57.660;12.000;2023-01-24T05:53:02;14.45;;;5.38;;
44366;SDS011;30086;57.660;12.000;2023-01-24T05:55:28;10.32;;;4.20;;
44366;SDS011;30086;57.660;12.000;2023-01-24T05:57:54;14.23;;;5.55;;
44366;SDS011;30086;57.660;12.000;2023-01-24T06:00:20;6.78;;;3.15;;
44366;SDS011;30086;57.660;12.000;2023-01-24T06:02:46;9.52;;;5.75;;
44366;SDS011;30086;57.660;12.000;2023-01-24T06:05:12;14.07;;;6.15;;
44366;SDS011;30086;57.660;12.000;2023-01-24T06:07:38;15.88;;;6.03;;
44366;SDS011;30086;57.660;12.000;2023-01-24T06:10:06;14.13;;;5.70;;
44366;SDS011;30086;57.660;12.000;2023-01-24T06:12:32;11.75;;;6.00;;
44366;SDS011;30086;57.660;12.000;2023-01-24T06:14:58;13.82;;;3.70;;
44366;SDS011;30086;57.660;12.000;2023-01-24T06:17:24;9.88;;;5.38;;
44366;SDS011;30086;57.660;12.000;2023-01-24T06:19:50;13.32;;;6.05;;
44366;SDS011;30086;57.660;12.000;2023-01-24T06:24:45;11.32;;;6.13;;
44366;SDS011;30086;57.660;12.000;2023-01-24T06:27:11;13.38;;;6.82;;
44366;SDS011;30086;57.660;12.000;2023-01-24T06:29:37;11.15;;;6.00;;
44366;SDS011;30086;57.660;12.000;2023-01-24T06:32:13;12.25;;;4.30;;
44366;SDS011;30086;57.660;12.000;2023-01-24T06:39:41;16.73;;;6.47;;
44366;SDS011;30086;57.660;12.000;2023-01-24T06:42:14;14.93;;;7.07;;
44366;SDS011;30086;57.660;12.000;2023-01-24T06:44:40;13.10;;;4.80;;
44366;SDS011;30086;57.660;12.000;2023-01-24T06:47:08;16.08;;;6.00;;
44366;SDS011;30086;57.660;12.000;2023-01-24T06:49:35;11.93;;;5.53;;
44366;SDS011;30086;57.660;12.000;2023-01-24T06:52:01;13.23;;;6.93;;
44366;SDS011;30086;57.660;12.000;2023-01-24T06:54:27;14.98;;;6.88;;
44366;SDS011;30086;57.660;12.000;2023-01-24T06:56:53;10.55;;;7.03;;
44366;SDS011;30086;57.660;12.000;2023-01-24T06:59:19;12.48;;;7.07;;
44366;SDS011;30086;57.660;12.000;2023-01-24T07:01:48;15.85;;;7.40;;
44366;SDS011;30086;57.660;12.000;2023-01-24T07:04:14;17.02;;;7.70;;
44366;SDS011;30086;57.660;12.000;2023-01-24T07:06:40;14.50;;;7.55;;
44366;SDS011;30086;57.660;12.000;2023-01-24T07:09:06;11.80;;;5.35;;
44366;SDS011;30086;57.660;12.000;2023-01-24T07:11:32;20.40;;;5.68;;
44366;SDS011;30086;57.660;12.000;2023-01-24T07:13:58;17.65;;;7.30;;
44366;SDS011;30086;57.660;12.000;2023-01-24T07:16:25;10.90;;;5.50;;
44366;SDS011;30086;57.660;12.000;2023-01-24T07:18:51;21.83;;;7.15;;
44366;SDS011;30086;57.660;12.000;2023-01-24T07:21:20;15.50;;;8.30;;
44366;SDS011;30086;57.660;12.000;2023-01-24T07:23:47;17.38;;;7.72;;
44366;SDS011;30086;57.660;12.000;2023-01-24T07:26:14;13.63;;;6.65;;
44366;SDS011;30086;57.660;12.000;2023-01-24T07:28:40;15.85;;;7.10;;
44366;SDS011;30086;57.660;12.000;2023-01-24T07:31:07;12.60;;;5.35;;
44366;SDS011;30086;57.660;12.000;2023-01-24T07:33:34;12.63;;;7.00;;
44366;SDS011;30086;57.660;12.000;2023-01-24T07:36:00;15.18;;;7.05;;
44366;SDS011;30086;57.660;12.000;2023-01-24T07:38:26;18.48;;;7.43;;
44366;SDS011;30086;57.660;12.000;2023-01-24T07:40:52;17.23;;;8.18;;
44366;SDS011;30086;57.660;12.000;2023-01-24T07:43:19;21.92;;;8.80;;
44366;SDS011;30086;57.660;12.000;2023-01-24T07:45:45;19.35;;;9.18;;
44366;SDS011;30086;57.660;12.000;2023-01-24T07:48:11;17.90;;;8.57;;
44366;SDS011;30086;57.660;12.000;2023-01-24T07:50:37;14.75;;;8.80;;
44366;SDS011;30086;57.660;12.000;2023-01-24T07:53:03;18.23;;;9.60;;
44366;SDS011;30086;57.660;12.000;2023-01-24T07:55:30;15.90;;;9.00;;
44366;SDS011;30086;57.660;12.000;2023-01-24T07:57:57;13.73;;;7.95;;
44366;SDS011;30086;57.660;12.000;2023-01-24T08:00:23;14.73;;;7.82;;
44366;SDS011;30086;57.660;12.000;2023-01-24T08:02:49;15.23;;;7.72;;
44366;SDS011;30086;57.660;12.000;2023-01-24T08:05:15;16.13;;;7.32;;
44366;SDS011;30086;57.660;12.000;2023-01-24T08:07:41;18.38;;;9.32;;
44366;SDS011;30086;57.660;12.000;2023-01-24T08:10:07;15.05;;;7.78;;
44366;SDS011;30086;57.660;12.000;2023-01-24T08:12:34;17.25;;;9.10;;
44366;SDS011;30086;57.660;12.000;2023-01-24T08:15:00;14.23;;;8.35;;
44366;SDS011;30086;57.660;12.000;2023-01-24T08:17:26;22.90;;;9.57;;
44366;SDS011;30086;57.660;12.000;2023-01-24T08:19:54;20.67;;;8.73;;
44366;SDS011;30086;57.660;12.000;2023-01-24T08:22:20;23.15;;;8.95;;
44366;SDS011;30086;57.660;12.000;2023-01-24T08:24:46;18.95;;;10.52;;
44366;SDS011;30086;57.660;12.000;2023-01-24T08:27:12;21.02;;;8.73;;
44366;SDS011;30086;57.660;12.000;2023-01-24T08:29:38;16.58;;;7.53;;
44366;SDS011;30086;57.660;12.000;2023-01-24T08:32:04;21.20;;;9.30;;
44366;SDS011;30086;57.660;12.000;2023-01-24T08:34:30;21.40;;;9.60;;
44366;SDS011;30086;57.660;12.000;2023-01-24T08:36:57;17.67;;;8.27;;
44366;SDS011;30086;57.660;12.000;2023-01-24T08:39:23;15.98;;;8.35;;
44366;SDS011;30086;57.660;12.000;2023-01-24T08:41:49;23.40;;;9.60;;
44366;SDS011;30086;57.660;12.000;2023-01-24T08:44:15;20.40;;;9.63;;
44366;SDS011;30086;57.660;12.000;2023-01-24T08:46:41;23.50;;;11.13;;
44366;SDS011;30086;57.660;12.000;2023-01-24T08:49:08;16.30;;;7.82;;
44366;SDS011;30086;57.660;12.000;2023-01-24T08:51:35;15.80;;;8.20;;
44366;SDS011;30086;57.660;12.000;2023-01-24T08:54:01;23.75;;;10.27;;
44366;SDS011;30086;57.660;12.000;2023-01-24T08:56:27;18.80;;;8.95;;
44366;SDS011;30086;57.660;12.000;2023-01-24T08:58:53;16.48;;;9.57;;
44366;SDS011;30086;57.660;12.000;2023-01-24T09:01:19;23.35;;;11.85;;
44366;SDS011;30086;57.660;12.000;2023-01-24T09:03:45;11.90;;;5.45;;
44366;SDS011;30086;57.660;12.000;2023-01-24T09:06:11;19.45;;;11.40;;
44366;SDS011;30086;57.660;12.000;2023-01-24T09:08:37;28.08;;;10.98;;
44366;SDS011;30086;57.660;12.000;2023-01-24T09:11:03;31.42;;;13.00;;
44366;SDS011;30086;57.660;12.000;2023-01-24T09:13:29;32.78;;;12.13;;
44366;SDS011;30086;57.660;12.000;2023-01-24T09:15:57;20.33;;;11.18;;
44366;SDS011;30086;57.660;12.000;2023-01-24T09:18:23;17.23;;;6.25;;
44366;SDS011;30086;57.660;12.000;2023-01-24T09:20:49;26.30;;;11.45;;
44366;SDS011;30086;57.660;12.000;2023-01-24T09:23:15;14.07;;;6.40;;
44366;SDS011;30086;57.660;12.000;2023-01-24T09:25:41;20.63;;;12.07;;
44366;SDS011;30086;57.660;12.000;2023-01-24T09:28:14;18.25;;;8.93;;
44366;SDS011;30086;57.660;12.000;2023-01-24T09:30:40;27.10;;;10.40;;
44366;SDS011;30086;57.660;12.000;2023-01-24T09:33:06;18.30;;;8.57;;
44366;SDS011;30086;57.660;12.000;2023-01-24T09:35:32;18.38;;;7.63;;
44366;SDS011;30086;57.660;12.000;2023-01-24T09:37:58;26.10;;;12.60;;
44366;SDS011;30086;57.660;12.000;2023-01-24T09:40:29;18.60;;;9.13;;
44366;SDS011;30086;57.660;12.000;2023-01-24T09:48:17;20.77;;;9.82;;
44366;SDS011;30086;57.660;12.000;2023-01-24T09:50:46;22.33;;;9.38;;
44366;SDS011;30086;57.660;12.000;2023-01-24T09:53:37;21.90;;;10.68;;
44366;SDS011;30086;57.660;12.000;2023-01-24T09:56:00;19.58;;;8.57;;
44366;SDS011;30086;57.660;12.000;2023-01-24T09:58:34;28.17;;;13.40;;
44366;SDS011;30086;57.660;12.000;2023-01-24T10:03:31;26.65;;;9.27;;
44366;SDS011;30086;57.660;12.000;2023-01-24T10:06:06;24.17;;;11.55;;
44366;SDS011;30086;57.660;12.000;2023-01-24T10:18:50;22.42;;;11.73;;
44366;SDS011;30086;57.660;12.000;2023-01-24T10:21:30;20.20;;;10.52;;
44366;SDS011;30086;57.660;12.000;2023-01-24T10:24:04;20.50;;;8.40;;
44366;SDS011;30086;57.660;12.000;2023-01-24T10:26:37;25.85;;;10.27;;
44366;SDS011;30086;57.660;12.000;2023-01-24T10:29:14;24.50;;;12.35;;
44366;SDS011;30086;57.660;12.000;2023-01-24T10:31:42;22.35;;;10.45;;
44366;SDS011;30086;57.660;12.000;2023-01-24T10:36:44;22.88;;;11.38;;
44366;SDS011;30086;57.660;12.000;2023-01-24T10:39:11;29.65;;;12.18;;
44366;SDS011;30086;57.660;12.000;2023-01-24T10:41:38;25.55;;;11.77;;
44366;SDS011;30086;57.660;12.000;2023-01-24T10:49:02;18.88;;;9.85;;
44366;SDS011;30086;57.660;12.000;2023-01-24T10:51:30;26.05;;;13.93;;
44366;SDS011;30086;57.660;12.000;2023-01-24T10:54:00;24.38;;;12.95;;
44366;SDS011;30086;57.660;12.000;2023-01-24T10:56:26;21.13;;;10.05;;
44366;SDS011;30086;57.660;12.000;2023-01-24T10:58:57;22.90;;;11.10;;
44366;SDS011;30086;57.660;12.000;2023-01-24T11:01:35;21.90;;;7.43;;
44366;SDS011;30086;57.660;12.000;2023-01-24T11:06:58;30.13;;;11.98;;
44366;SDS011;30086;57.660;12.000;2023-01-24T11:09:30;27.17;;;12.38;;
44366;SDS011;30086;57.660;12.000;2023-01-24T11:11:59;12.45;;;5.05;;
44366;SDS011;30086;57.660;12.000;2023-01-24T11:14:26;27.38;;;13.35;;
44366;SDS011;30086;57.660;12.000;2023-01-24T11:16:54;29.13;;;12.98;;
44366;SDS011;30086;57.660;12.000;2023-01-24T11:19:22;24.58;;;12.55;;
44366;SDS011;30086;57.660;12.000;2023-01-24T11:21:49;20.90;;;9.77;;
44366;SDS011;30086;57.660;12.000;2023-01-24T11:24:17;29.05;;;14.52;;
44366;SDS011;30086;57.660;12.000;2023-01-24T11:27:02;28.13;;;13.70;;
44366;SDS011;30086;57.660;12.000;2023-01-24T11:29:29;30.77;;;13.93;;
44366;SDS011;30086;57.660;12.000;2023-01-24T11:31:57;26.48;;;14.95;;
44366;SDS011;30086;57.660;12.000;2023-01-24T11:37:24;28.38;;;12.48;;
44366;SDS011;30086;57.660;12.000;2023-01-24T11:39:56;25.98;;;13.88;;
44366;SDS011;30086;57.660;12.000;2023-01-24T11:45:37;26.13;;;14.40;;
44366;SDS011;30086;57.660;12.000;2023-01-24T11:47:38;28.25;;;14.60;;
44366;SDS011;30086;57.660;12.000;2023-01-24T11:52:53;24.05;;;10.13;;
44366;SDS011;30086;57.660;12.000;2023-01-24T11:55:31;29.23;;;14.68;;
44366;SDS011;30086;57.660;12.000;2023-01-24T12:08:49;27.23;;;13.43;;
44366;SDS011;30086;57.660;12.000;2023-01-24T12:11:22;30.45;;;15.50;;
44366;SDS011;30086;57.660;12.000;2023-01-24T12:14:01;32.88;;;14.13;;
44366;SDS011;30086;57.660;12.000;2023-01-24T12:21:36;30.00;;;17.08;;
44366;SDS011;30086;57.660;12.000;2023-01-24T12:24:03;30.38;;;16.58;;
44366;SDS011;30086;57.660;12.000;2023-01-24T12:26:41;25.15;;;9.25;;
44366;SDS011;30086;57.660;12.000;2023-01-24T12:29:11;48.78;;;18.45;;
44366;SDS011;30086;57.660;12.000;2023-01-24T12:39:46;30.83;;;13.27;;
44366;SDS011;30086;57.660;12.000;2023-01-24T12:42:16;31.08;;;9.10;;
44366;SDS011;30086;57.660;12.000;2023-01-24T12:44:44;33.35;;;14.57;;
44366;SDS011;30086;57.660;12.000;2023-01-24T12:52:17;27.55;;;14.32;;
44366;SDS011;30086;57.660;12.000;2023-01-24T12:54:53;40.90;;;18.55;;
44366;SDS011;30086;57.660;12.000;2023-01-24T12:57:22;43.35;;;19.23;;
44366;SDS011;30086;57.660;12.000;2023-01-24T12:59:50;34.25;;;15.52;;
44366;SDS011;30086;57.660;12.000;2023-01-24T13:07:50;37.25;;;15.63;;
44366;SDS011;30086;57.660;12.000;2023-01-24T13:13:05;29.40;;;15.77;;
44366;SDS011;30086;57.660;12.000;2023-01-24T13:16:15;35.17;;;16.38;;
44366;SDS011;30086;57.660;12.000;2023-01-24T13:26:10;35.40;;;17.63;;
44366;SDS011;30086;57.660;12.000;2023-01-24T13:33:38;34.60;;;18.15;;
44366;SDS011;30086;57.660;12.000;2023-01-24T13:36:05;31.95;;;17.67;;
44366;SDS011;30086;57.660;12.000;2023-01-24T13:38:39;30.45;;;15.07;;
44366;SDS011;30086;57.660;12.000;2023-01-24T13:41:07;24.83;;;13.07;;
44366;SDS011;30086;57.660;12.000;2023-01-24T13:49:17;34.05;;;18.83;;
44366;SDS011;30086;57.660;12.000;2023-01-24T13:51:47;36.70;;;20.15;;
44366;SDS011;30086;57.660;12.000;2023-01-24T13:59:27;32.03;;;17.67;;
44366;SDS011;30086;57.660;12.000;2023-01-24T14:01:53;35.85;;;15.93;;
44366;SDS011;30086;57.660;12.000;2023-01-24T14:04:32;27.63;;;16.40;;
44366;SDS011;30086;57.660;12.000;2023-01-24T14:07:02;30.92;;;15.48;;
44366;SDS011;30086;57.660;12.000;2023-01-24T14:09:42;41.65;;;16.92;;
44366;SDS011;30086;57.660;12.000;2023-01-24T14:12:10;40.40;;;18.38;;
44366;SDS011;30086;57.660;12.000;2023-01-24T14:17:28;64.80;;;24.27;;
44366;SDS011;30086;57.660;12.000;2023-01-24T14:22:59;57.15;;;20.75;;
44366;SDS011;30086;57.660;12.000;2023-01-24T14:28:13;58.45;;;27.15;;
44366;SDS011;30086;57.660;12.000;2023-01-24T14:30:48;65.85;;;28.52;;
44366;SDS011;30086;57.660;12.000;2023-01-24T14:35:58;67.75;;;23.73;;
44366;SDS011;30086;57.660;12.000;2023-01-24T14:38:25;59.40;;;30.08;;
44366;SDS011;30086;57.660;12.000;2023-01-24T14:40:52;57.22;;;28.83;;
44366;SDS011;30086;57.660;12.000;2023-01-24T14:43:19;62.55;;;25.58;;
44366;SDS011;30086;57.660;12.000;2023-01-24T14:45:46;66.60;;;29.55;;
44366;SDS011;30086;57.660;12.000;2023-01-24T14:48:14;70.90;;;27.55;;
44366;SDS011;30086;57.660;12.000;2023-01-24T14:50:42;78.85;;;28.83;;
44366;SDS011;30086;57.660;12.000;2023-01-24T14:53:22;69.40;;;24.27;;
44366;SDS011;30086;57.660;12.000;2023-01-24T14:55:54;68.00;;;30.13;;
44366;SDS011;30086;57.660;12.000;2023-01-24T14:58:23;61.35;;;19.10;;
44366;SDS011;30086;57.660;12.000;2023-01-24T15:00:50;73.15;;;22.23;;
44366;SDS011;30086;57.660;12.000;2023-01-24T15:03:20;59.28;;;29.45;;
44366;SDS011;30086;57.660;12.000;2023-01-24T15:06:06;73.93;;;25.60;;
44366;SDS011;30086;57.660;12.000;2023-01-24T15:08:32;74.60;;;23.27;;
44366;SDS011;30086;57.660;12.000;2023-01-24T15:11:16;69.32;;;29.63;;
44366;SDS011;30086;57.660;12.000;2023-01-24T15:13:45;74.50;;;25.38;;
44366;SDS011;30086;57.660;12.000;2023-01-24T15:16:18;78.75;;;24.88;;
44366;SDS011;30086;57.660;12.000;2023-01-24T15:18:52;79.80;;;29.20;;
44366;SDS011;30086;57.660;12.000;2023-01-24T15:23:52;85.88;;;24.98;;
44366;SDS011;30086;57.660;12.000;2023-01-24T15:28:48;80.22;;;30.73;;
44366;SDS011;30086;57.660;12.000;2023-01-24T15:31:17;82.50;;;25.73;;
44366;SDS011;30086;57.660;12.000;2023-01-24T15:33:44;86.60;;;33.45;;
44366;SDS011;30086;57.660;12.000;2023-01-24T15:38:49;96.45;;;30.60;;
44366;SDS011;30086;57.660;12.000;2023-01-24T15:41:37;94.75;;;33.08;;
44366;SDS011;30086;57.660;12.000;2023-01-24T15:44:22;98.53;;;30.92;;
44366;SDS011;30086;57.660;12.000;2023-01-24T15:46:55;93.38;;;34.90;;
44366;SDS011;30086;57.660;12.000;2023-01-24T15:49:57;89.97;;;27.98;;
44366;SDS011;30086;57.660;12.000;2023-01-24T15:52:23;91.30;;;35.60;;
44366;SDS011;30086;57.660;12.000;2023-01-24T15:54:53;93.03;;;25.90;;
44366;SDS011;30086;57.660;12.000;2023-01-24T16:00:36;102.63;;;33.42;;
44366;SDS011;30086;57.660;12.000;2023-01-24T16:02:37;103.78;;;31.25;;
44366;SDS011;30086;57.660;12.000;2023-01-24T16:05:13;86.32;;;24.10;;
44366;SDS011;30086;57.660;12.000;2023-01-24T16:07:39;91.80;;;25.13;;
44366;SDS011;30086;57.660;12.000;2023-01-24T16:10:05;83.47;;;27.27;;
44366;SDS011;30086;57.660;12.000;2023-01-24T16:12:32;78.53;;;27.80;;
44366;SDS011;30086;57.660;12.000;2023-01-24T16:14:59;70.82;;;26.33;;
44366;SDS011;30086;57.660;12.000;2023-01-24T16:17:25;78.65;;;27.67;;
44366;SDS011;30086;57.660;12.000;2023-01-24T16:19:51;77.22;;;27.20;;
44366;SDS011;30086;57.660;12.000;2023-01-24T16:22:17;75.13;;;25.80;;
44366;SDS011;30086;57.660;12.000;2023-01-24T16:24:43;83.78;;;26.67;;
44366;SDS011;30086;57.660;12.000;2023-01-24T16:27:10;78.03;;;26.45;;
44366;SDS011;30086;57.660;12.000;2023-01-24T16:29:37;55.30;;;25.83;;
44366;SDS011;30086;57.660;12.000;2023-01-24T16:32:09;85.25;;;26.25;;
44366;SDS011;30086;57.660;12.000;2023-01-24T16:34:40;70.28;;;26.15;;
44366;SDS011;30086;57.660;12.000;2023-01-24T16:37:07;75.03;;;26.05;;
44366;SDS011;30086;57.660;12.000;2023-01-24T16:39:34;74.78;;;26.67;;
44366;SDS011;30086;57.660;12.000;2023-01-24T16:42:00;72.63;;;27.92;;